Flight Track Log - Related Links

Times and Time Zones

All times are in EDT time to prevent confusion due to time zone crossing. See the DLH791 flight status page for this flight to view local times or setup timezone preferences in your user account.

Time Position Orientation Groundspeed Altitude Reporting Facility
EDT Latitude Longitude Course Direction KTS MPH feet Rate Location/Type
Sat 11:31:32 AM 1.4958 103.8630 318° Northwest  Level Estimated
Sat 11:32:32 AM 1.5872 103.7818 318° Northwest  Level Estimated
Sat 11:33:32 AM 1.6786 103.7005 318° Northwest  Level Estimated
Sat 11:34:32 AM 1.7714 103.6181 318° Northwest  Level Estimated
Sat 11:35:32 AM 1.8641 103.5357 318° Northwest  Level Estimated
Sat 11:36:32 AM 1.9568 103.4532 318° Northwest  Level Estimated
Sat 11:37:32 AM 2.0496 103.3707 318° Northwest  Level Estimated
Sat 11:38:32 AM 2.1423 103.2883 318° Northwest  Level Estimated
Sat 11:39:32 AM 2.2350 103.2058 318° Northwest  Level Estimated
Sat 11:40:32 AM 2.3278 103.1233 318° Northwest  Level Estimated
Sat 11:41:32 AM 2.4205 103.0408 318° Northwest  Level Estimated
Sat 11:42:32 AM 2.5132 102.9582 318° Northwest  Level Estimated
Sat 11:43:32 AM 2.6059 102.8757 318° Northwest  Level Estimated
Sat 11:44:32 AM 2.6986 102.7932 318° Northwest  Level Estimated
Sat 11:45:32 AM 2.7913 102.7106 318° Northwest  Level Estimated
Sat 11:46:32 AM 2.8840 102.6280 318° Northwest  Level Estimated
Sat 11:47:32 AM 2.9767 102.5454 318° Northwest  Level Estimated
Sat 11:48:32 AM 3.0694 102.4629 318° Northwest  Level Estimated
Sat 11:49:32 AM 3.1621 102.3802 318° Northwest  Level Estimated
Sat 11:50:32 AM 3.2548 102.2976 318° Northwest  Level Estimated
Sat 11:51:32 AM 3.3474 102.2150 318° Northwest  Level Estimated
Sat 11:52:32 AM 3.4401 102.1323 318° Northwest  Level Estimated
Sat 11:53:32 AM 3.5327 102.0496 318° Northwest  Level Estimated
Sat 11:54:32 AM 3.6254 101.9669 318° Northwest  Level Estimated
Sat 11:55:32 AM 3.7180 101.8842 318° Northwest  Level Estimated
Sat 11:56:32 AM 3.8106 101.8015 318° Northwest  Level Estimated
Sat 11:57:32 AM 3.9032 101.7188 318° Northwest  Level Estimated
Sat 11:58:32 AM 3.9959 101.6360 318° Northwest  Level Estimated
Sat 11:59:32 AM 4.0885 101.5532 318° Northwest  Level Estimated
Sat 12:00:32 PM 4.1810 101.4704 318° Northwest  Level Estimated
Sat 12:01:32 PM 4.2736 101.3876 318° Northwest  Level Estimated
Sat 12:02:32 PM 4.3662 101.3048 318° Northwest  Level Estimated
Sat 12:03:32 PM 4.4588 101.2219 318° Northwest  Level Estimated
Sat 12:04:32 PM 4.5514 101.1391 318° Northwest  Level Estimated
Sat 12:05:32 PM 4.6439 101.0562 318° Northwest  Level Estimated
Sat 12:06:32 PM 4.7364 100.9732 318° Northwest  Level Estimated
Sat 12:07:32 PM 4.8290 100.8903 318° Northwest  Level Estimated
Sat 12:08:32 PM 4.9215 100.8073 318° Northwest  Level Estimated
Sat 12:09:32 PM 5.0140 100.7243 318° Northwest  Level Estimated
Sat 12:10:32 PM 5.1065 100.6413 318° Northwest  Level Estimated
Sat 12:11:32 PM 5.1990 100.5583 318° Northwest  Level Estimated
Sat 12:12:32 PM 5.2915 100.4752 318° Northwest  Level Estimated
Sat 12:13:32 PM 5.3839 100.3921 318° Northwest  Level Estimated
Sat 12:14:32 PM 5.4764 100.3090 318° Northwest  Level Estimated
Sat 12:15:32 PM 5.5688 100.2259 318° Northwest  Level Estimated
Sat 12:16:32 PM 5.6613 100.1427 318° Northwest  Level Estimated
Sat 12:17:32 PM 5.7537 100.0595 318° Northwest  Level Estimated
Sat 12:18:32 PM 5.8461 99.9763 318° Northwest  Level Estimated
Sat 12:19:32 PM 5.9385 99.8931 318° Northwest  Level Estimated
Sat 12:20:32 PM 6.0309 99.8098 318° Northwest  Level Estimated
Sat 12:21:32 PM 6.1232 99.7265 318° Northwest  Level Estimated
Sat 12:22:32 PM 6.2156 99.6432 318° Northwest  Level Estimated
Sat 12:23:32 PM 6.3079 99.5598 318° Northwest  Level Estimated
Sat 12:24:32 PM 6.4003 99.4764 318° Northwest  Level Estimated
Sat 12:25:32 PM 6.4926 99.3930 318° Northwest  Level Estimated
Sat 12:26:32 PM 6.5849 99.3095 318° Northwest  Level Estimated
Sat 12:27:32 PM 6.6772 99.2261 318° Northwest  Level Estimated
Sat 12:28:32 PM 6.7695 99.1425 318° Northwest  Level Estimated
Sat 12:29:32 PM 6.8617 99.0590 318° Northwest  Level Estimated
Sat 12:30:32 PM 6.9540 98.9754 318° Northwest  Level Estimated
Sat 12:31:32 PM 7.0462 98.8918 318° Northwest  Level Estimated
Sat 12:32:32 PM 7.1384 98.8082 318° Northwest  Level Estimated
Sat 12:33:32 PM 7.2306 98.7245 318° Northwest  Level Estimated
Sat 12:34:32 PM 7.3228 98.6408 318° Northwest  Level Estimated
Sat 12:35:32 PM 7.4150 98.5570 318° Northwest  Level Estimated
Sat 12:36:32 PM 7.5071 98.4733 318° Northwest  Level Estimated
Sat 12:37:32 PM 7.5993 98.3894 318° Northwest  Level Estimated
Sat 12:38:32 PM 7.6914 98.3056 318° Northwest  Level Estimated
Sat 12:39:32 PM 7.7835 98.2217 318° Northwest  Level Estimated
Sat 12:40:32 PM 7.8756 98.1378 318° Northwest  Level Estimated
Sat 12:41:32 PM 7.9677 98.0538 318° Northwest  Level Estimated
Sat 12:42:32 PM 8.0597 97.9698 318° Northwest  Level Estimated
Sat 12:43:32 PM 8.1518 97.8858 318° Northwest  Level Estimated
Sat 12:44:32 PM 8.2438 97.8017 318° Northwest  Level Estimated
Sat 12:45:32 PM 8.3358 97.7176 318° Northwest  Level Estimated
Sat 12:46:32 PM 8.4278 97.6334 318° Northwest  Level Estimated
Sat 12:47:32 PM 8.5197 97.5492 318° Northwest  Level Estimated
Sat 12:48:32 PM 8.6117 97.4650 318° Northwest  Level Estimated
Sat 12:49:32 PM 8.7036 97.3807 318° Northwest  Level Estimated
Sat 12:50:32 PM 8.7956 97.2964 318° Northwest  Level Estimated
Sat 12:51:32 PM 8.8875 97.2120 318° Northwest  Level Estimated
Sat 12:52:32 PM 8.9793 97.1276 318° Northwest  Level Estimated
Sat 12:53:32 PM 9.0712 97.0432 318° Northwest  Level Estimated
Sat 12:54:32 PM 9.1630 96.9587 318° Northwest  Level Estimated
Sat 12:55:32 PM 9.2549 96.8742 318° Northwest  Level Estimated
Sat 12:56:32 PM 9.3467 96.7896 318° Northwest  Level Estimated
Sat 12:57:32 PM 9.4384 96.7050 318° Northwest  Level Estimated
Sat 12:58:32 PM 9.5302 96.6203 318° Northwest  Level Estimated
Sat 12:59:32 PM 9.6219 96.5356 318° Northwest  Level Estimated
Sat 01:00:32 PM 9.7136 96.4508 318° Northwest  Level Estimated
Sat 01:01:32 PM 9.8054 96.3660 318° Northwest  Level Estimated
Sat 01:02:32 PM 9.8970 96.2812 318° Northwest  Level Estimated
Sat 01:03:32 PM 9.9887 96.1963 318° Northwest  Level Estimated
Sat 01:04:32 PM 10.0803 96.1113 318° Northwest  Level Estimated
Sat 01:05:32 PM 10.1719 96.0264 318° Northwest  Level Estimated
Sat 01:06:32 PM 10.2635 95.9413 318° Northwest  Level Estimated
Sat 01:07:32 PM 10.3551 95.8562 318° Northwest  Level Estimated
Sat 01:08:32 PM 10.4466 95.7711 318° Northwest  Level Estimated
Sat 01:09:32 PM 10.5381 95.6859 318° Northwest  Level Estimated
Sat 01:10:32 PM 10.6297 95.6006 318° Northwest  Level Estimated
Sat 01:11:32 PM 10.7211 95.5154 317° Northwest  Level Estimated
Sat 01:12:32 PM 10.8126 95.4300 317° Northwest  Level Estimated
Sat 01:13:32 PM 10.9040 95.3446 317° Northwest  Level Estimated
Sat 01:14:32 PM 10.9954 95.2591 317° Northwest  Level Estimated
Sat 01:15:32 PM 11.0868 95.1736 317° Northwest  Level Estimated
Sat 01:16:32 PM 11.1782 95.0881 317° Northwest  Level Estimated
Sat 01:17:32 PM 11.2695 95.0025 317° Northwest  Level Estimated
Sat 01:18:32 PM 11.3608 94.9168 317° Northwest  Level Estimated
Sat 01:19:32 PM 11.4521 94.8311 317° Northwest  Level Estimated
Sat 01:20:32 PM 11.5433 94.7453 317° Northwest  Level Estimated
Sat 01:21:32 PM 11.6346 94.6595 317° Northwest  Level Estimated
Sat 01:22:32 PM 11.7258 94.5736 317° Northwest  Level Estimated
Sat 01:23:32 PM 11.8170 94.4877 317° Northwest  Level Estimated
Sat 01:24:32 PM 11.9081 94.4017 317° Northwest  Level Estimated
Sat 01:25:32 PM 11.9993 94.3156 317° Northwest  Level Estimated
Sat 01:26:32 PM 12.0904 94.2295 317° Northwest  Level Estimated
Sat 01:27:32 PM 12.1814 94.1433 317° Northwest  Level Estimated
Sat 01:28:32 PM 12.2725 94.0571 317° Northwest  Level Estimated
Sat 01:29:32 PM 12.3635 93.9708 317° Northwest  Level Estimated
Sat 01:30:32 PM 12.4545 93.8844 317° Northwest  Level Estimated
Sat 01:31:32 PM 12.5455 93.7980 317° Northwest  Level Estimated
Sat 01:32:32 PM 12.6364 93.7115 317° Northwest  Level Estimated
Sat 01:33:32 PM 12.7273 93.6250 317° Northwest  Level Estimated
Sat 01:34:32 PM 12.8182 93.5384 317° Northwest  Level Estimated
Sat 01:35:32 PM 12.9091 93.4517 317° Northwest  Level Estimated
Sat 01:36:32 PM 12.9999 93.3650 317° Northwest  Level Estimated
Sat 01:37:32 PM 13.0907 93.2782 317° Northwest  Level Estimated
Sat 01:38:32 PM 13.1815 93.1914 317° Northwest  Level Estimated
Sat 01:39:32 PM 13.2722 93.1044 317° Northwest  Level Estimated
Sat 01:40:32 PM 13.3629 93.0175 317° Northwest  Level Estimated
Sat 01:41:32 PM 13.4536 92.9304 317° Northwest  Level Estimated
Sat 01:42:32 PM 13.5443 92.8433 317° Northwest  Level Estimated
Sat 01:43:32 PM 13.6349 92.7561 317° Northwest  Level Estimated
Sat 01:44:32 PM 13.7255 92.6689 317° Northwest  Level Estimated
Sat 01:45:32 PM 13.8160 92.5816 317° Northwest  Level Estimated
Sat 01:46:32 PM 13.9066 92.4942 317° Northwest  Level Estimated
Sat 01:47:32 PM 13.9971 92.4067 317° Northwest  Level Estimated
Sat 01:48:32 PM 14.0875 92.3192 317° Northwest  Level Estimated
Sat 01:49:32 PM 14.1780 92.2316 317° Northwest  Level Estimated
Sat 01:50:32 PM 14.2684 92.1440 317° Northwest  Level Estimated
Sat 01:51:32 PM 14.3588 92.0562 317° Northwest  Level Estimated
Sat 01:52:32 PM 14.4491 91.9684 317° Northwest  Level Estimated
Sat 01:53:32 PM 14.5394 91.8806 317° Northwest  Level Estimated
Sat 01:54:32 PM 14.6297 91.7926 317° Northwest  Level Estimated
Sat 01:55:32 PM 14.7199 91.7046 317° Northwest  Level Estimated
Sat 01:56:32 PM 14.8101 91.6165 317° Northwest  Level Estimated
Sat 01:57:32 PM 14.9003 91.5284 317° Northwest  Level Estimated
Sat 01:58:32 PM 14.9905 91.4401 317° Northwest  Level Estimated
Sat 01:59:32 PM 15.0806 91.3518 317° Northwest  Level Estimated
Sat 02:00:32 PM 15.1706 91.2634 317° Northwest  Level Estimated
Sat 02:01:32 PM 15.2607 91.1750 317° Northwest  Level Estimated
Sat 02:02:32 PM 15.3507 91.0864 316° Northwest  Level Estimated
Sat 02:03:32 PM 15.4407 90.9978 316° Northwest  Level Estimated
Sat 02:04:32 PM 15.5306 90.9091 316° Northwest  Level Estimated
Sat 02:05:32 PM 15.6205 90.8204 316° Northwest  Level Estimated
Sat 02:06:32 PM 15.7104 90.7315 316° Northwest  Level Estimated
Sat 02:07:32 PM 15.8002 90.6426 316° Northwest  Level Estimated
Sat 02:08:32 PM 15.8900 90.5536 316° Northwest  Level Estimated
Sat 02:09:32 PM 15.9797 90.4645 316° Northwest  Level Estimated
Sat 02:10:32 PM 16.0695 90.3753 316° Northwest  Level Estimated
Sat 02:11:32 PM 16.1591 90.2861 316° Northwest  Level Estimated
Sat 02:12:32 PM 16.2488 90.1968 316° Northwest  Level Estimated
Sat 02:13:32 PM 16.3384 90.1074 316° Northwest  Level Estimated
Sat 02:14:32 PM 16.4280 90.0179 316° Northwest  Level Estimated
Sat 02:15:32 PM 16.5175 89.9283 316° Northwest  Level Estimated
Sat 02:16:32 PM 16.6070 89.8387 316° Northwest  Level Estimated
Sat 02:17:32 PM 16.6964 89.7489 316° Northwest  Level Estimated
Sat 02:18:32 PM 16.7859 89.6591 316° Northwest  Level Estimated
Sat 02:19:32 PM 16.8752 89.5692 316° Northwest  Level Estimated
Sat 02:20:32 PM 16.9646 89.4792 316° Northwest  Level Estimated
Sat 02:21:32 PM 17.0539 89.3891 316° Northwest  Level Estimated
Sat 02:22:32 PM 17.1431 89.2990 316° Northwest  Level Estimated
Sat 02:23:32 PM 17.2323 89.2087 316° Northwest  Level Estimated
Sat 02:24:32 PM 17.3215 89.1184 316° Northwest  Level Estimated
Sat 02:25:32 PM 17.4107 89.0280 316° Northwest  Level Estimated
Sat 02:26:32 PM 17.4998 88.9375 316° Northwest  Level Estimated
Sat 02:27:32 PM 17.5888 88.8469 316° Northwest  Level Estimated
Sat 02:28:32 PM 17.6779 88.7562 316° Northwest  Level Estimated
Sat 02:29:32 PM 17.7668 88.6654 316° Northwest  Level Estimated
Sat 02:30:32 PM 17.8557 88.5745 316° Northwest  Level Estimated
Sat 02:31:32 PM 17.9446 88.4836 316° Northwest  Level Estimated
Sat 02:32:32 PM 18.0335 88.3925 316° Northwest  Level Estimated
Sat 02:33:32 PM 18.1223 88.3014 316° Northwest  Level Estimated
Sat 02:34:32 PM 18.2111 88.2101 316° Northwest  Level Estimated
Sat 02:35:32 PM 18.2998 88.1188 316° Northwest  Level Estimated
Sat 02:36:32 PM 18.3885 88.0274 316° Northwest  Level Estimated
Sat 02:37:32 PM 18.4771 87.9359 316° Northwest  Level Estimated
Sat 02:38:32 PM 18.5657 87.8442 316° Northwest  Level Estimated
Sat 02:39:32 PM 18.6542 87.7525 316° Northwest  Level Estimated
Sat 02:40:32 PM 18.7427 87.6607 315° West  Level Estimated
Sat 02:41:32 PM 18.8312 87.5688 315° West  Level Estimated
Sat 02:42:32 PM 18.9196 87.4768 315° West  Level Estimated
Sat 02:43:32 PM 19.0079 87.3847 315° West  Level Estimated
Sat 02:44:32 PM 19.0963 87.2925 315° West  Level Estimated
Sat 02:45:32 PM 19.1845 87.2003 315° West  Level Estimated
Sat 02:46:32 PM 19.2728 87.1079 315° West  Level Estimated
Sat 02:47:32 PM 19.3609 87.0154 315° West  Level Estimated
Sat 02:48:32 PM 19.4491 86.9228 315° West  Level Estimated
Sat 02:49:32 PM 19.5371 86.8301 315° West  Level Estimated
Sat 02:50:32 PM 19.6252 86.7373 315° West  Level Estimated
Sat 02:51:32 PM 19.7132 86.6444 315° West  Level Estimated
Sat 02:52:32 PM 19.8011 86.5514 315° West  Level Estimated
Sat 02:53:32 PM 19.8890 86.4583 315° West  Level Estimated
Sat 02:54:32 PM 19.9769 86.3651 315° West  Level Estimated
Sat 02:55:32 PM 20.0647 86.2718 315° West  Level Estimated
Sat 02:56:32 PM 20.1524 86.1784 315° West  Level Estimated
Sat 02:57:32 PM 20.2401 86.0849 315° West  Level Estimated
Sat 02:58:32 PM 20.3278 85.9913 315° West  Level Estimated
Sat 02:59:32 PM 20.4154 85.8976 315° West  Level Estimated
Sat 03:00:32 PM 20.5029 85.8037 315° West  Level Estimated
Sat 03:01:32 PM 20.5904 85.7098 315° West  Level Estimated
Sat 03:02:32 PM 20.6779 85.6158 315° West  Level Estimated
Sat 03:03:32 PM 20.7653 85.5216 315° West  Level Estimated
Sat 03:04:32 PM 20.8526 85.4273 315° West  Level Estimated
Sat 03:05:32 PM 20.9399 85.3330 315° West  Level Estimated
Sat 03:06:32 PM 21.0271 85.2385 315° West  Level Estimated
Sat 03:07:32 PM 21.1143 85.1439 315° West  Level Estimated
Sat 03:08:32 PM 21.2015 85.0492 315° West  Level Estimated
Sat 03:09:32 PM 21.2886 84.9544 315° West  Level Estimated
Sat 03:10:32 PM 21.3756 84.8594 315° West  Level Estimated
Sat 03:11:32 PM 21.4626 84.7644 314° West  Level Estimated
Sat 03:12:32 PM 21.5495 84.6692 314° West  Level Estimated
Sat 03:13:32 PM 21.6364 84.5740 314° West  Level Estimated
Sat 03:14:32 PM 21.7232 84.4786 314° West  Level Estimated
Sat 03:15:32 PM 21.8099 84.3831 314° West  Level Estimated
Sat 03:16:32 PM 21.8967 84.2875 314° West  Level Estimated
Sat 03:17:32 PM 21.9833 84.1917 314° West  Level Estimated
Sat 03:18:32 PM 22.0699 84.0959 314° West  Level Estimated
Sat 03:19:32 PM 22.1565 83.9999 314° West  Level Estimated
Sat 03:20:32 PM 22.2429 83.9038 314° West  Level Estimated
Sat 03:21:32 PM 22.3294 83.8076 314° West  Level Estimated
Sat 03:22:32 PM 22.4157 83.7113 314° West  Level Estimated
Sat 03:23:32 PM 22.5020 83.6149 314° West  Level Estimated
Sat 03:24:32 PM 22.5883 83.5183 314° West  Level Estimated
Sat 03:25:32 PM 22.6745 83.4216 314° West  Level Estimated
Sat 03:26:32 PM 22.7606 83.3248 314° West  Level Estimated
Sat 03:27:32 PM 22.8467 83.2279 314° West  Level Estimated
Sat 03:28:32 PM 22.9327 83.1308 314° West  Level Estimated
Sat 03:29:32 PM 23.0187 83.0337 314° West  Level Estimated
Sat 03:30:32 PM 23.1046 82.9364 314° West  Level Estimated
Sat 03:31:32 PM 23.1904 82.8389 314° West  Level Estimated
Sat 03:32:32 PM 23.2762 82.7414 314° West  Level Estimated
Sat 03:33:32 PM 23.3619 82.6437 314° West  Level Estimated
Sat 03:34:32 PM 23.4476 82.5459 314° West  Level Estimated
Sat 03:35:32 PM 23.5332 82.4480 314° West  Level Estimated
Sat 03:36:32 PM 23.6187 82.3500 314° West  Level Estimated
Sat 03:37:32 PM 23.7042 82.2518 314° West  Level Estimated
Sat 03:38:32 PM 23.7896 82.1535 313° West  Level Estimated
Sat 03:39:32 PM 23.8750 82.0550 313° West  Level Estimated
Sat 03:40:32 PM 23.9603 81.9565 313° West  Level Estimated
Sat 03:41:32 PM 24.0455 81.8577 313° West  Level Estimated
Sat 03:42:32 PM 24.1307 81.7589 313° West  Level Estimated
Sat 03:43:32 PM 24.2158 81.6600 313° West  Level Estimated
Sat 03:44:32 PM 24.3008 81.5609 313° West  Level Estimated
Sat 03:45:32 PM 24.3858 81.4616 313° West  Level Estimated
Sat 03:46:32 PM 24.4707 81.3623 313° West  Level Estimated
Sat 03:47:32 PM 24.5555 81.2628 313° West  Level Estimated
Sat 03:48:32 PM 24.6403 81.1631 313° West  Level Estimated
Sat 03:49:32 PM 24.7250 81.0634 313° West  Level Estimated
Sat 03:50:32 PM 24.8097 80.9635 313° West  Level Estimated
Sat 03:51:32 PM 24.8943 80.8634 313° West  Level Estimated
Sat 03:52:32 PM 24.9788 80.7633 313° West  Level Estimated
Sat 03:53:32 PM 25.0632 80.6630 313° West  Level Estimated
Sat 03:54:32 PM 25.1476 80.5625 313° West  Level Estimated
Sat 03:55:32 PM 25.2319 80.4619 313° West  Level Estimated
Sat 03:56:32 PM 25.3161 80.3612 313° West  Level Estimated
Sat 03:57:32 PM 25.4003 80.2603 313° West  Level Estimated
Sat 03:58:32 PM 25.4844 80.1593 313° West  Level Estimated
Sat 03:59:32 PM 25.5685 80.0582 313° West  Level Estimated
Sat 04:00:32 PM 25.6524 79.9569 313° West  Level Estimated
Sat 04:01:32 PM 25.7363 79.8554 313° West  Level Estimated
Sat 04:02:32 PM 25.8202 79.7539 312° West  Level Estimated
Sat 04:03:32 PM 25.9039 79.6521 312° West  Level Estimated
Sat 04:04:32 PM 25.9876 79.5503 312° West  Level Estimated
Sat 04:05:32 PM 26.0712 79.4483 312° West  Level Estimated
Sat 04:06:32 PM 26.1547 79.3461 312° West  Level Estimated
Sat 04:07:32 PM 26.2382 79.2438 312° West  Level Estimated
Sat 04:08:32 PM 26.3216 79.1413 312° West  Level Estimated
Sat 04:09:32 PM 26.4049 79.0387 312° West  Level Estimated
Sat 04:10:32 PM 26.4882 78.9360 312° West  Level Estimated
Sat 04:11:32 PM 26.5714 78.8331 312° West  Level Estimated
Sat 04:12:32 PM 26.6545 78.7300 312° West  Level Estimated
Sat 04:13:32 PM 26.7375 78.6268 312° West  Level Estimated
Sat 04:14:32 PM 26.8204 78.5235 312° West  Level Estimated
Sat 04:15:32 PM 26.9033 78.4200 312° West  Level Estimated
Sat 04:16:32 PM 26.9861 78.3164 312° West  Level Estimated
Sat 04:17:32 PM 27.0688 78.2125 312° West  Level Estimated
Sat 04:18:32 PM 27.1515 78.1086 312° West  Level Estimated
Sat 04:19:32 PM 27.2341 78.0045 312° West  Level Estimated
Sat 04:20:32 PM 27.3166 77.9002 312° West  Level Estimated
Sat 04:21:32 PM 27.3990 77.7958 312° West  Level Estimated
Sat 04:22:32 PM 27.4813 77.6912 312° West  Level Estimated
Sat 04:23:32 PM 27.5636 77.5865 312° West  Level Estimated
Sat 04:24:32 PM 27.6458 77.4816 311° West  Level Estimated
Sat 04:25:32 PM 27.7279 77.3766 311° West  Level Estimated
Sat 04:26:32 PM 27.8099 77.2714 311° West  Level Estimated
Sat 04:27:32 PM 27.8918 77.1660 311° West  Level Estimated
Sat 04:28:32 PM 27.9737 77.0605 311° West  Level Estimated
Sat 04:29:32 PM 28.0555 76.9548 311° West  Level Estimated
Sat 04:30:32 PM 28.1372 76.8490 311° West  Level Estimated
Sat 04:31:32 PM 28.2188 76.7430 311° West  Level Estimated
Sat 04:32:32 PM 28.3004 76.6368 311° West  Level Estimated
Sat 04:33:32 PM 28.3818 76.5305 311° West  Level Estimated
Sat 04:34:32 PM 28.4632 76.4240 311° West  Level Estimated
Sat 04:35:32 PM 28.5445 76.3173 311° West  Level Estimated
Sat 04:36:32 PM 28.6257 76.2105 311° West  Level Estimated
Sat 04:37:32 PM 28.7068 76.1035 311° West  Level Estimated
Sat 04:38:32 PM 28.7878 75.9963 311° West  Level Estimated
Sat 04:39:32 PM 28.8688 75.8890 311° West  Level Estimated
Sat 04:40:32 PM 28.9497 75.7815 311° West  Level Estimated
Sat 04:41:32 PM 29.0305 75.6739 311° West  Level Estimated
Sat 04:42:32 PM 29.1112 75.5661 311° West  Level Estimated
Sat 04:43:32 PM 29.1918 75.4581 310° West  Level Estimated
Sat 04:44:32 PM 29.2723 75.3499 310° West  Level Estimated
Sat 04:45:32 PM 29.3528 75.2416 310° West  Level Estimated
Sat 04:46:32 PM 29.4331 75.1331 310° West  Level Estimated
Sat 04:47:32 PM 29.5134 75.0244 310° West  Level Estimated
Sat 04:48:32 PM 29.5935 74.9156 310° West  Level Estimated
Sat 04:49:32 PM 29.6736 74.8065 310° West  Level Estimated
Sat 04:50:32 PM 29.7536 74.6973 310° West  Level Estimated
Sat 04:51:32 PM 29.8335 74.5880 310° West  Level Estimated
Sat 04:52:32 PM 29.9133 74.4784 310° West  Level Estimated
Sat 04:53:32 PM 29.9931 74.3687 310° West  Level Estimated
Sat 04:54:32 PM 30.0727 74.2588 310° West  Level Estimated
Sat 04:55:32 PM 30.1523 74.1487 310° West  Level Estimated
Sat 04:56:32 PM 30.2317 74.0385 310° West  Level Estimated
Sat 04:57:32 PM 30.3111 73.9280 310° West  Level Estimated
Sat 04:58:32 PM 30.3903 73.8174 310° West  Level Estimated
Sat 04:59:32 PM 30.4695 73.7066 310° West  Level Estimated
Sat 05:00:32 PM 30.5486 73.5957 310° West  Level Estimated
Sat 05:01:32 PM 30.6276 73.4845 310° West  Level Estimated
Sat 05:02:32 PM 30.7064 73.3732 309° West  Level Estimated
Sat 05:03:32 PM 30.7852 73.2617 309° West  Level Estimated
Sat 05:04:32 PM 30.8639 73.1500 309° West  Level Estimated
Sat 05:05:32 PM 30.9425 73.0381 309° West  Level Estimated
Sat 05:06:32 PM 31.0210 72.9260 309° West  Level Estimated
Sat 05:07:32 PM 31.0995 72.8138 309° West  Level Estimated
Sat 05:08:32 PM 31.1778 72.7014 309° West  Level Estimated
Sat 05:09:32 PM 31.2560 72.5888 309° West  Level Estimated
Sat 05:10:32 PM 31.3341 72.4760 309° West  Level Estimated
Sat 05:11:32 PM 31.4121 72.3630 309° West  Level Estimated
Sat 05:12:32 PM 31.4900 72.2498 309° West  Level Estimated
Sat 05:13:32 PM 31.5679 72.1364 309° West  Level Estimated
Sat 05:14:32 PM 31.6456 72.0229 309° West  Level Estimated
Sat 05:15:32 PM 31.7232 71.9091 309° West  Level Estimated
Sat 05:16:32 PM 31.8007 71.7952 309° West  Level Estimated
Sat 05:17:32 PM 31.8781 71.6810 309° West  Level Estimated
Sat 05:18:32 PM 31.9554 71.5667 309° West  Level Estimated
Sat 05:19:32 PM 32.0326 71.4522 308° West  Level Estimated
Sat 05:20:32 PM 32.1098 71.3375 308° West  Level Estimated
Sat 05:21:32 PM 32.1868 71.2226 308° West  Level Estimated
Sat 05:22:32 PM 32.2637 71.1075 308° West  Level Estimated
Sat 05:23:32 PM 32.3405 70.9922 308° West  Level Estimated
Sat 05:24:32 PM 32.4171 70.8767 308° West  Level Estimated
Sat 05:25:32 PM 32.4937 70.7610 308° West  Level Estimated
Sat 05:26:32 PM 32.5702 70.6452 308° West  Level Estimated
Sat 05:27:32 PM 32.6466 70.5291 308° West  Level Estimated
Sat 05:28:32 PM 32.7228 70.4128 308° West  Level Estimated
Sat 05:29:32 PM 32.7990 70.2963 308° West  Level Estimated
Sat 05:30:32 PM 32.8750 70.1797 308° West  Level Estimated
Sat 05:31:32 PM 32.9510 70.0628 308° West  Level Estimated
Sat 05:32:32 PM 33.0268 69.9457 308° West  Level Estimated
Sat 05:33:32 PM 33.1025 69.8285 308° West  Level Estimated
Sat 05:34:32 PM 33.1781 69.7110 308° West  Level Estimated
Sat 05:35:32 PM 33.2536 69.5933 307° West  Level Estimated
Sat 05:36:32 PM 33.3290 69.4754 307° West  Level Estimated
Sat 05:37:32 PM 33.4043 69.3573 307° West  Level Estimated
Sat 05:38:32 PM 33.4795 69.2390 307° West  Level Estimated
Sat 05:39:32 PM 33.5545 69.1205 307° West  Level Estimated
Sat 05:40:32 PM 33.6295 69.0018 307° West  Level Estimated
Sat 05:41:32 PM 33.7043 68.8829 307° West  Level Estimated
Sat 05:42:32 PM 33.7790 68.7638 307° West  Level Estimated
Sat 05:43:32 PM 33.8536 68.6445 307° West  Level Estimated
Sat 05:44:32 PM 33.9281 68.5249 307° West  Level Estimated
Sat 05:45:32 PM 34.0025 68.4052 307° West  Level Estimated
Sat 05:46:32 PM 34.0767 68.2852 307° West  Level Estimated
Sat 05:47:32 PM 34.1508 68.1651 307° West  Level Estimated
Sat 05:48:32 PM 34.2249 68.0447 307° West  Level Estimated
Sat 05:49:32 PM 34.2988 67.9241 307° West  Level Estimated
Sat 05:50:32 PM 34.3725 67.8033 306° West  Level Estimated
Sat 05:51:32 PM 34.4462 67.6823 306° West  Level Estimated
Sat 05:52:32 PM 34.5197 67.5611 306° West  Level Estimated
Sat 05:53:32 PM 34.5932 67.4397 306° West  Level Estimated
Sat 05:54:32 PM 34.6665 67.3180 306° West  Level Estimated
Sat 05:55:32 PM 34.7396 67.1961 306° West  Level Estimated
Sat 05:56:32 PM 34.8127 67.0741 306° West  Level Estimated
Sat 05:57:32 PM 34.8856 66.9518 306° West  Level Estimated
Sat 05:58:32 PM 34.9585 66.8292 306° West  Level Estimated
Sat 05:59:32 PM 35.0311 66.7065 306° West  Level Estimated
Sat 06:00:32 PM 35.1037 66.5835 306° West  Level Estimated
Sat 06:01:32 PM 35.1762 66.4604 306° West  Level Estimated
Sat 06:02:32 PM 35.2485 66.3370 306° West  Level Estimated
Sat 06:03:32 PM 35.3207 66.2134 306° West  Level Estimated
Sat 06:04:32 PM 35.3927 66.0895 305° West  Level Estimated
Sat 06:05:32 PM 35.4647 65.9655 305° West  Level Estimated
Sat 06:06:32 PM 35.5365 65.8412 305° West  Level Estimated
Sat 06:07:32 PM 35.6082 65.7167 305° West  Level Estimated
Sat 06:08:32 PM 35.6797 65.5920 305° West  Level Estimated
Sat 06:09:32 PM 35.7512 65.4670 305° West  Level Estimated
Sat 06:10:32 PM 35.8225 65.3419 305° West  Level Estimated
Sat 06:11:32 PM 35.8936 65.2165 305° West  Level Estimated
Sat 06:12:32 PM 35.9647 65.0908 305° West  Level Estimated
Sat 06:13:32 PM 36.0356 64.9650 305° West  Level Estimated
Sat 06:14:32 PM 36.1064 64.8389 305° West  Level Estimated
Sat 06:15:32 PM 36.1770 64.7126 305° West  Level Estimated
Sat 06:16:32 PM 36.2475 64.5861 305° West  Level Estimated
Sat 06:17:32 PM 36.3179 64.4593 305° West  Level Estimated
Sat 06:18:32 PM 36.3881 64.3324 304° West  Level Estimated
Sat 06:19:32 PM 36.4582 64.2051 304° West  Level Estimated
Sat 06:20:32 PM 36.5282 64.0777 304° West  Level Estimated
Sat 06:21:32 PM 36.5980 63.9500 304° West  Level Estimated
Sat 06:22:32 PM 36.6678 63.8221 304° West  Level Estimated
Sat 06:23:32 PM 36.7373 63.6940 304° West  Level Estimated
Sat 06:24:32 PM 36.8068 63.5656 304° West  Level Estimated
Sat 06:25:32 PM 36.8760 63.4370 304° West  Level Estimated
Sat 06:26:32 PM 36.9452 63.3082 304° West  Level Estimated
Sat 06:27:32 PM 37.0142 63.1791 304° West  Level Estimated
Sat 06:28:32 PM 37.0831 63.0498 304° West  Level Estimated
Sat 06:29:32 PM 37.1518 62.9202 304° West  Level Estimated
Sat 06:30:32 PM 37.2204 62.7905 304° West  Level Estimated
Sat 06:31:32 PM 37.2888 62.6604 303° West  Level Estimated
Sat 06:32:32 PM 37.3571 62.5302 303° West  Level Estimated
Sat 06:33:32 PM 37.4253 62.3997 303° West  Level Estimated
Sat 06:34:32 PM 37.4933 62.2690 303° West  Level Estimated
Sat 06:35:32 PM 37.5612 62.1380 303° West  Level Estimated
Sat 06:36:32 PM 37.6289 62.0068 303° West  Level Estimated
Sat 06:37:32 PM 37.6965 61.8754 303° West  Level Estimated
Sat 06:38:32 PM 37.7639 61.7437 303° West  Level Estimated
Sat 06:39:32 PM 37.8312 61.6118 303° West  Level Estimated
Sat 06:40:32 PM 37.8984 61.4796 303° West  Level Estimated
Sat 06:41:32 PM 37.9654 61.3472 303° West  Level Estimated
Sat 06:42:32 PM 38.0322 61.2146 303° West  Level Estimated
Sat 06:43:32 PM 38.0989 61.0817 302° West  Level Estimated
Sat 06:44:32 PM 38.1655 60.9486 302° West  Level Estimated
Sat 06:45:32 PM 38.2318 60.8152 302° West  Level Estimated
Sat 06:46:32 PM 38.2981 60.6816 302° West  Level Estimated
Sat 06:47:32 PM 38.3642 60.5478 302° West  Level Estimated
Sat 06:48:32 PM 38.4301 60.4137 302° West  Level Estimated
Sat 06:49:32 PM 38.4959 60.2793 302° West  Level Estimated
Sat 06:50:32 PM 38.5615 60.1447 302° West  Level Estimated
Sat 06:51:32 PM 38.6270 60.0099 302° West  Level Estimated
Sat 06:52:32 PM 38.6923 59.8748 302° West  Level Estimated
Sat 06:53:32 PM 38.7575 59.7395 302° West  Level Estimated
Sat 06:54:32 PM 38.8225 59.6039 302° West  Level Estimated
Sat 06:55:32 PM 38.8874 59.4681 301° West  Level Estimated
Sat 06:56:32 PM 38.9521 59.3320 301° West  Level Estimated
Sat 06:57:32 PM 39.0166 59.1957 301° West  Level Estimated
Sat 06:58:32 PM 39.0810 59.0591 301° West  Level Estimated
Sat 06:59:32 PM 39.1452 58.9223 301° West  Level Estimated
Sat 07:00:32 PM 39.2093 58.7852 301° West  Level Estimated
Sat 07:01:32 PM 39.2732 58.6479 301° West  Level Estimated
Sat 07:02:32 PM 39.3369 58.5103 301° West  Level Estimated
Sat 07:03:32 PM 39.4005 58.3725 301° West  Level Estimated
Sat 07:04:32 PM 39.4639 58.2345 301° West  Level Estimated
Sat 07:05:32 PM 39.5272 58.0961 301° West  Level Estimated
Sat 07:06:32 PM 39.5902 57.9576 301° West  Level Estimated
Sat 07:07:32 PM 39.6532 57.8187 300° West  Level Estimated
Sat 07:08:32 PM 39.7159 57.6797 300° West  Level Estimated
Sat 07:09:32 PM 39.7785 57.5403 300° West  Level Estimated
Sat 07:10:32 PM 39.8409 57.4007 300° West  Level Estimated
Sat 07:11:32 PM 39.9032 57.2609 300° West  Level Estimated
Sat 07:12:32 PM 39.9653 57.1208 300° West  Level Estimated
Sat 07:13:32 PM 40.0272 56.9805 300° West  Level Estimated
Sat 07:14:32 PM 40.0889 56.8399 300° West  Level Estimated
Sat 07:15:32 PM 40.1505 56.6990 300° West  Level Estimated
Sat 07:16:32 PM 40.2119 56.5579 300° West  Level Estimated
Sat 07:17:32 PM 40.2732 56.4165 300° West  Level Estimated
Sat 07:18:32 PM 40.3342 56.2749 299° West  Level Estimated
Sat 07:19:32 PM 40.3951 56.1330 299° West  Level Estimated
Sat 07:20:32 PM 40.4558 55.9909 299° West  Level Estimated
Sat 07:21:32 PM 40.5164 55.8485 299° West  Level Estimated
Sat 07:22:32 PM 40.5767 55.7059 299° West  Level Estimated
Sat 07:23:32 PM 40.6369 55.5630 299° West  Level Estimated
Sat 07:24:32 PM 40.6969 55.4198 299° West  Level Estimated
Sat 07:25:32 PM 40.7568 55.2764 299° West  Level Estimated
Sat 07:26:32 PM 40.8164 55.1327 299° West  Level Estimated
Sat 07:27:32 PM 40.8759 54.9888 299° West  Level Estimated
Sat 07:28:32 PM 40.9352 54.8446 299° West  Level Estimated
Sat 07:29:32 PM 40.9943 54.7001 298° West  Level Estimated
Sat 07:30:32 PM 41.0533 54.5554 298° West  Level Estimated
Sat 07:31:32 PM 41.1120 54.4104 298° West  Level Estimated
Sat 07:32:32 PM 41.1706 54.2652 298° West  Level Estimated
Sat 07:33:32 PM 41.2290 54.1197 298° West  Level Estimated
Sat 07:34:32 PM 41.2872 53.9740 298° West  Level Estimated
Sat 07:35:32 PM 41.3452 53.8280 298° West  Level Estimated
Sat 07:36:32 PM 41.4031 53.6817 298° West  Level Estimated
Sat 07:37:32 PM 41.4607 53.5352 298° West  Level Estimated
Sat 07:38:32 PM 41.5182 53.3884 298° West  Level Estimated
Sat 07:39:32 PM 41.5755 53.2413 297° West  Level Estimated
Sat 07:40:32 PM 41.6326 53.0940 297° West  Level Estimated
Sat 07:41:32 PM 41.6895 52.9464 297° West  Level Estimated
Sat 07:42:32 PM 41.7462 52.7986 297° West  Level Estimated
Sat 07:43:32 PM 41.8027 52.6505 297° West  Level Estimated
Sat 07:44:32 PM 41.8591 52.5022 297° West  Level Estimated
Sat 07:45:32 PM 41.9152 52.3535 297° West  Level Estimated
Sat 07:46:32 PM 41.9711 52.2047 297° West  Level Estimated
Sat 07:47:32 PM 42.0269 52.0555 297° West  Level Estimated
Sat 07:48:32 PM 42.0825 51.9061 297° West  Level Estimated
Sat 07:49:32 PM 42.1379 51.7565 296° West  Level Estimated
Sat 07:50:32 PM 42.1930 51.6065 296° West  Level Estimated
Sat 07:51:32 PM 42.2480 51.4563 296° West  Level Estimated
Sat 07:52:32 PM 42.3028 51.3059 296° West  Level Estimated
Sat 07:53:32 PM 42.3574 51.1552 296° West  Level Estimated
Sat 07:54:32 PM 42.4118 51.0042 296° West  Level Estimated
Sat 07:55:32 PM 42.4660 50.8530 296° West  Level Estimated
Sat 07:56:32 PM 42.5200 50.7015 296° West  Level Estimated
Sat 07:57:32 PM 42.5737 50.5497 296° West  Level Estimated
Sat 07:58:32 PM 42.6273 50.3977 296° West  Level Estimated
Sat 07:59:32 PM 42.6807 50.2454 295° West  Level Estimated
Sat 08:00:32 PM 42.7339 50.0929 295° West  Level Estimated
Sat 08:01:32 PM 42.7869 49.9401 295° West  Level Estimated
Sat 08:02:32 PM 42.8397 49.7870 295° West  Level Estimated
Sat 08:03:32 PM 42.8923 49.6337 295° West  Level Estimated
Sat 08:04:32 PM 42.9447 49.4801 295° West  Level Estimated
Sat 08:05:32 PM 42.9968 49.3263 295° West  Level Estimated
Sat 08:06:32 PM 43.0488 49.1722 295° West  Level Estimated
Sat 08:07:32 PM 43.1006 49.0178 295° West  Level Estimated
Sat 08:08:32 PM 43.1521 48.8632 294° West  Level Estimated
Sat 08:09:32 PM 43.2034 48.7083 294° West  Level Estimated
Sat 08:10:32 PM 43.2546 48.5531 294° West  Level Estimated
Sat 08:11:32 PM 43.3055 48.3977 294° West  Level Estimated
Sat 08:12:32 PM 43.3562 48.2421 294° West  Level Estimated
Sat 08:13:32 PM 43.4067 48.0861 294° West  Level Estimated
Sat 08:14:32 PM 43.4570 47.9299 294° West  Level Estimated
Sat 08:15:32 PM 43.5071 47.7735 294° West  Level Estimated
Sat 08:16:32 PM 43.5569 47.6168 294° West  Level Estimated
Sat 08:17:32 PM 43.6066 47.4598 294° West  Level Estimated
Sat 08:18:32 PM 43.6560 47.3026 293° West  Level Estimated
Sat 08:19:32 PM 43.7052 47.1451 293° West  Level Estimated
Sat 08:20:32 PM 43.7542 46.9874 293° West  Level Estimated
Sat 08:21:32 PM 43.8030 46.8294 293° West  Level Estimated
Sat 08:22:32 PM 43.8515 46.6711 293° West  Level Estimated
Sat 08:23:32 PM 43.8999 46.5126 293° West  Level Estimated
Sat 08:24:32 PM 43.9480 46.3538 293° West  Level Estimated
Sat 08:25:32 PM 43.9959 46.1948 293° West  Level Estimated
Sat 08:26:32 PM 44.0436 46.0355 293° West  Level Estimated
Sat 08:27:32 PM 44.0910 45.8760 292° West  Level Estimated
Sat 08:28:32 PM 44.1383 45.7162 292° West  Level Estimated
Sat 08:29:32 PM 44.1853 45.5561 292° West  Level Estimated
Sat 08:30:32 PM 44.2321 45.3958 292° West  Level Estimated
Sat 08:31:32 PM 44.2787 45.2353 292° West  Level Estimated
Sat 08:32:32 PM 44.3250 45.0744 292° West  Level Estimated
Sat 08:33:32 PM 44.3711 44.9134 292° West  Level Estimated
Sat 08:34:32 PM 44.4170 44.7520 292° West  Level Estimated
Sat 08:35:32 PM 44.4627 44.5905 292° West  Level Estimated
Sat 08:36:32 PM 44.5081 44.4286 291° West  Level Estimated
Sat 08:37:32 PM 44.5533 44.2666 291° West  Level Estimated
Sat 08:38:32 PM 44.5983 44.1042 291° West  Level Estimated
Sat 08:39:32 PM 44.6430 43.9417 291° West  Level Estimated
Sat 08:40:32 PM 44.6875 43.7788 291° West  Level Estimated
Sat 08:41:32 PM 44.7318 43.6157 291° West  Level Estimated
Sat 08:42:32 PM 44.7759 43.4524 291° West  Level Estimated
Sat 08:43:32 PM 44.8197 43.2888 291° West  Level Estimated
Sat 08:44:32 PM 44.8633 43.1250 291° West  Level Estimated
Sat 08:45:32 PM 44.9066 42.9609 290° West  Level Estimated
Sat 08:46:32 PM 44.9497 42.7966 290° West  Level Estimated
Sat 08:47:32 PM 44.9926 42.6320 290° West  Level Estimated
Sat 08:48:32 PM 45.0352 42.4672 290° West  Level Estimated
Sat 08:49:32 PM 45.0776 42.3022 290° West  Level Estimated
Sat 08:50:32 PM 45.1198 42.1368 290° West  Level Estimated
Sat 08:51:32 PM 45.1617 41.9713 290° West  Level Estimated
Sat 08:52:32 PM 45.2034 41.8055 290° West  Level Estimated
Sat 08:53:32 PM 45.2449 41.6395 289° West  Level Estimated
Sat 08:54:32 PM 45.2861 41.4732 289° West  Level Estimated
Sat 08:55:32 PM 45.3270 41.3067 289° West  Level Estimated
Sat 08:56:32 PM 45.3678 41.1399 289° West  Level Estimated
Sat 08:57:32 PM 45.4082 40.9729 289° West  Level Estimated
Sat 08:58:32 PM 45.4485 40.8057 289° West  Level Estimated
Sat 08:59:32 PM 45.4885 40.6382 289° West  Level Estimated
Sat 09:00:32 PM 45.5282 40.4705 289° West  Level Estimated
Sat 09:01:32 PM 45.5677 40.3026 289° West  Level Estimated
Sat 09:02:32 PM 45.6070 40.1344 288° West  Level Estimated
Sat 09:03:32 PM 45.6460 39.9660 288° West  Level Estimated
Sat 09:04:32 PM 45.6847 39.7973 288° West  Level Estimated
Sat 09:05:32 PM 45.7232 39.6284 288° West  Level Estimated
Sat 09:06:32 PM 45.7615 39.4593 288° West  Level Estimated
Sat 09:07:32 PM 45.7995 39.2900 288° West  Level Estimated
Sat 09:08:32 PM 45.8373 39.1204 288° West  Level Estimated
Sat 09:09:32 PM 45.8748 38.9506 288° West  Level Estimated
Sat 09:10:32 PM 45.9120 38.7805 287° West  Level Estimated
Sat 09:11:32 PM 45.9491 38.6103 287° West  Level Estimated
Sat 09:12:32 PM 45.9858 38.4398 287° West  Level Estimated
Sat 09:13:32 PM 46.0223 38.2691 287° West  Level Estimated
Sat 09:14:32 PM 46.0585 38.0981 287° West  Level Estimated
Sat 09:15:32 PM 46.0945 37.9270 287° West  Level Estimated
Sat 09:16:32 PM 46.1303 37.7556 287° West  Level Estimated
Sat 09:17:32 PM 46.1657 37.5840 287° West  Level Estimated
Sat 09:18:32 PM 46.2010 37.4121 286° West  Level Estimated
Sat 09:19:32 PM 46.2359 37.2401 286° West  Level Estimated
Sat 09:20:32 PM 46.2706 37.0678 286° West  Level Estimated
Sat 09:21:32 PM 46.3051 36.8953 286° West  Level Estimated
Sat 09:22:32 PM 46.3392 36.7226 286° West  Level Estimated
Sat 09:23:32 PM 46.3732 36.5497 286° West  Level Estimated
Sat 09:24:32 PM 46.4068 36.3766 286° West  Level Estimated
Sat 09:25:32 PM 46.4402 36.2032 286° West  Level Estimated
Sat 09:26:32 PM 46.4734 36.0297 285° West  Level Estimated
Sat 09:27:32 PM 46.5062 35.8559 285° West  Level Estimated
Sat 09:28:32 PM 46.5388 35.6819 285° West  Level Estimated
Sat 09:29:32 PM 46.5712 35.5078 285° West  Level Estimated
Sat 09:30:32 PM 46.6033 35.3334 285° West  Level Estimated
Sat 09:31:32 PM 46.6351 35.1588 285° West  Level Estimated
Sat 09:32:32 PM 46.6666 34.9840 285° West  Level Estimated
Sat 09:33:32 PM 46.6979 34.8089 285° West  Level Estimated
Sat 09:34:32 PM 46.7290 34.6337 284° West  Level Estimated
Sat 09:35:32 PM 46.7597 34.4583 284° West  Level Estimated
Sat 09:36:32 PM 46.7902 34.2827 284° West  Level Estimated
Sat 09:37:32 PM 46.8204 34.1069 284° West  Level Estimated
Sat 09:38:32 PM 46.8503 33.9309 284° West  Level Estimated
Sat 09:39:32 PM 46.8800 33.7547 284° West  Level Estimated
Sat 09:40:32 PM 46.9094 33.5783 284° West  Level Estimated
Sat 09:41:32 PM 46.9385 33.4017 284° West  Level Estimated
Sat 09:42:32 PM 46.9674 33.2250 283° West  Level Estimated
Sat 09:43:32 PM 46.9960 33.0480 283° West  Level Estimated
Sat 09:44:32 PM 47.0243 32.8709 283° West  Level Estimated
Sat 09:45:32 PM 47.0523 32.6935 283° West  Level Estimated
Sat 09:46:32 PM 47.0801 32.5160 283° West  Level Estimated
Sat 09:47:32 PM 47.1076 32.3383 283° West  Level Estimated
Sat 09:48:32 PM 47.1348 32.1604 283° West  Level Estimated
Sat 09:49:32 PM 47.1618 31.9823 282° West  Level Estimated
Sat 09:50:32 PM 47.1884 31.8041 282° West  Level Estimated
Sat 09:51:32 PM 47.2148 31.6256 282° West  Level Estimated
Sat 09:52:32 PM 47.2409 31.4470 282° West  Level Estimated
Sat 09:53:32 PM 47.2668 31.2682 282° West  Level Estimated
Sat 09:54:32 PM 47.2923 31.0893 282° West  Level Estimated
Sat 09:55:32 PM 47.3176 30.9101 282° West  Level Estimated
Sat 09:56:32 PM 47.3426 30.7308 282° West  Level Estimated
Sat 09:57:32 PM 47.3673 30.5514 281° West  Level Estimated
Sat 09:58:32 PM 47.3918 30.3717 281° West  Level Estimated
Sat 09:59:32 PM 47.4159 30.1919 281° West  Level Estimated
Sat 10:00:32 PM 47.4398 30.0119 281° West  Level Estimated
Sat 10:01:32 PM 47.4634 29.8318 281° West  Level Estimated
Sat 10:02:32 PM 47.4867 29.6515 281° West  Level Estimated
Sat 10:03:32 PM 47.5097 29.4711 281° West  Level Estimated
Sat 10:04:32 PM 47.5325 29.2905 280° West  Level Estimated
Sat 10:05:32 PM 47.5549 29.1097 280° West  Level Estimated
Sat 10:06:32 PM 47.5771 28.9288 280° West  Level Estimated
Sat 10:07:32 PM 47.5990 28.7477 280° West  Level Estimated
Sat 10:08:32 PM 47.6206 28.5665 280° West  Level Estimated
Sat 10:09:32 PM 47.6419 28.3851 280° West  Level Estimated
Sat 10:10:32 PM 47.6630 28.2036 280° West  Level Estimated
Sat 10:11:32 PM 47.6837 28.0219 280° West  Level Estimated
Sat 10:12:32 PM 47.7042 27.8401 279° West  Level Estimated
Sat 10:13:32 PM 47.7243 27.6584 279° West  Level Estimated
Sat 10:14:32 PM 47.7442 27.4766 279° West  Level Estimated
Sat 10:15:32 PM 47.7638 27.2946 279° West  Level Estimated
Sat 10:16:32 PM 47.7831 27.1125 279° West  Level Estimated
Sat 10:17:32 PM 47.8021 26.9303 279° West  Level Estimated
Sat 10:18:32 PM 47.8208 26.7479 279° West  Level Estimated
Sat 10:19:32 PM 47.8392 26.5654 278° West  Level Estimated
Sat 10:20:32 PM 47.8573 26.3827 278° West  Level Estimated
Sat 10:21:32 PM 47.8751 26.2000 278° West  Level Estimated
Sat 10:22:32 PM 47.8927 26.0171 278° West  Level Estimated
Sat 10:23:32 PM 47.9100 25.8341 278° West  Level Estimated
Sat 10:24:32 PM 47.9269 25.6509 278° West  Level Estimated
Sat 10:25:32 PM 47.9436 25.4677 278° West  Level Estimated
Sat 10:26:32 PM 47.9600 25.2843 278° West  Level Estimated
Sat 10:27:32 PM 47.9761 25.1008 277° West  Level Estimated
Sat 10:28:32 PM 47.9919 24.9172 277° West  Level Estimated
Sat 10:29:32 PM 48.0074 24.7335 277° West  Level Estimated
Sat 10:30:32 PM 48.0226 24.5497 277° West  Level Estimated
Sat 10:31:32 PM 48.0375 24.3658 277° West  Level Estimated
Sat 10:32:32 PM 48.0522 24.1818 277° West  Level Estimated
Sat 10:33:32 PM 48.0665 23.9976 277° West  Level Estimated
Sat 10:34:32 PM 48.0805 23.8134 276° West  Level Estimated
Sat 10:35:32 PM 48.0943 23.6290 276° West  Level Estimated
Sat 10:36:32 PM 48.1077 23.4446 276° West  Level Estimated
Sat 10:37:32 PM 48.1209 23.2601 276° West  Level Estimated
Sat 10:38:32 PM 48.1337 23.0755 276° West  Level Estimated
Sat 10:39:32 PM 48.1463 22.8908 276° West  Level Estimated
Sat 10:40:32 PM 48.1586 22.7060 276° West  Level Estimated
Sat 10:41:32 PM 48.1705 22.5211 275° West  Level Estimated
Sat 10:42:32 PM 48.1822 22.3361 275° West  Level Estimated
Sat 10:43:32 PM 48.1936 22.1510 275° West  Level Estimated
Sat 10:44:32 PM 48.2047 21.9659 275° West  Level Estimated
Sat 10:45:32 PM 48.2154 21.7807 275° West  Level Estimated
Sat 10:46:32 PM 48.2259 21.5954 275° West  Level Estimated
Sat 10:47:32 PM 48.2361 21.4100 275° West  Level Estimated
Sat 10:48:32 PM 48.2460 21.2246 275° West  Level Estimated
Sat 10:49:32 PM 48.2556 21.0390 274° West  Level Estimated
Sat 10:50:32 PM 48.2649 20.8535 274° West  Level Estimated
Sat 10:51:32 PM 48.2739 20.6678 274° West  Level Estimated
Sat 10:52:32 PM 48.2826 20.4821 274° West  Level Estimated
Sat 10:53:32 PM 48.2910 20.2963 274° West  Level Estimated
Sat 10:54:32 PM 48.2990 20.1105 274° West  Level Estimated
Sat 10:55:32 PM 48.3069 19.9246 274° West  Level Estimated
Sat 10:56:32 PM 48.3144 19.7386 273° West  Level Estimated
Sat 10:57:32 PM 48.3215 19.5527 273° West  Level Estimated
Sat 10:58:32 PM 48.3284 19.3666 273° West  Level Estimated
Sat 10:59:32 PM 48.3350 19.1805 273° West  Level Estimated
Sat 11:00:32 PM 48.3413 18.9944 273° West  Level Estimated
Sat 11:01:32 PM 48.3473 18.8082 273° West  Level Estimated
Sat 11:02:32 PM 48.3530 18.6219 273° West  Level Estimated
Sat 11:03:32 PM 48.3584 18.4356 272° West  Level Estimated
Sat 11:04:32 PM 48.3635 18.2493 272° West  Level Estimated
Sat 11:05:32 PM 48.3683 18.0630 272° West  Level Estimated
Sat 11:06:32 PM 48.3728 17.8766 272° West  Level Estimated
Sat 11:07:32 PM 48.3770 17.6902 272° West  Level Estimated
Sat 11:08:32 PM 48.3809 17.5037 272° West  Level Estimated
Sat 11:09:32 PM 48.3844 17.3172 272° West  Level Estimated
Sat 11:10:32 PM 48.3877 17.1307 271° West  Level Estimated
Sat 11:11:32 PM 48.3907 16.9442 271° West  Level Estimated
Sat 11:12:32 PM 48.3934 16.7577 271° West  Level Estimated
Sat 11:13:32 PM 48.3958 16.5711 271° West  Level Estimated
Sat 11:14:32 PM 48.3979 16.3845 271° West  Level Estimated
Sat 11:15:32 PM 48.3997 16.1979 271° West  Level Estimated
Sat 11:16:32 PM 48.4011 16.0113 271° West  Level Estimated
Sat 11:17:32 PM 48.4023 15.8247 270° West  Level Estimated
Sat 11:18:32 PM 48.4032 15.6381 270° West  Level Estimated
Sat 11:19:32 PM 48.4038 15.4515 270° West  Level Estimated
Sat 11:20:32 PM 48.4040 15.2648 270° West  Level Estimated
Sat 11:21:32 PM 48.4040 15.0782 270° West  Level Estimated
Sat 11:22:32 PM 48.4037 14.8916 270° West  Level Estimated
Sat 11:23:32 PM 48.4030 14.7049 270° West  Level Estimated
Sat 11:24:32 PM 48.4021 14.5183 269° West  Level Estimated
Sat 11:25:32 PM 48.4008 14.3317 269° West  Level Estimated
Sat 11:26:32 PM 48.3993 14.1451 269° West  Level Estimated
Sat 11:27:32 PM 48.3975 13.9585 269° West  Level Estimated
Sat 11:28:32 PM 48.3953 13.7719 269° West  Level Estimated
Sat 11:29:32 PM 48.3929 13.5854 269° West  Level Estimated
Sat 11:30:32 PM 48.3901 13.3988 269° West  Level Estimated
Sat 11:31:32 PM 48.3871 13.2123 269° West  Level Estimated
Sat 11:32:32 PM 48.3837 13.0258 268° West  Level Estimated
Sat 11:33:32 PM 48.3801 12.8393 268° West  Level Estimated
Sat 11:34:32 PM 48.3761 12.6529 268° West  Level Estimated
Sat 11:35:32 PM 48.3719 12.4665 268° West  Level Estimated
Sat 11:36:32 PM 48.3673 12.2801 268° West  Level Estimated
Sat 11:37:32 PM 48.3625 12.0938 268° West  Level Estimated
Sat 11:38:32 PM 48.3573 11.9075 268° West  Level Estimated
Sat 11:39:32 PM 48.3518 11.7212 87° East  Level Estimated
Sat 11:40:32 PM 48.3573 11.9075 268° West  Level Estimated
Sat 11:41:32 PM 48.3518 11.7212 87° East  Level Estimated
Sat 11:42:32 PM 48.3573 11.9075 268° West  Level Estimated
Sat 11:43:32 PM 48.3518 11.7212 87° East  Level Estimated
Sat 11:44:32 PM 48.3573 11.9075 268° West  Level Estimated
Sat 11:45:32 PM 48.3518 11.7212 87° East  Level Estimated
Sat 11:46:32 PM 48.3573 11.9075 268° West  Level Estimated
Sat 11:47:32 PM 48.3518 11.7212 87° East  Level Estimated
Sat 11:48:32 PM 48.3573 11.9075 268° West  Level Estimated
Sat 11:49:32 PM 48.3518 11.7212 87° East  Level Estimated
Sat 11:50:32 PM 48.3573 11.9075 268° West  Level Estimated
Sat 11:51:32 PM 48.3518 11.7212 87° East  Level Estimated
Sat 11:52:32 PM 48.3573 11.9075 268° West  Level Estimated
Sat 11:53:32 PM 48.3518 11.7212 87° East  Level Estimated
Sat 11:54:32 PM 48.3573 11.9075 268° West  Level Estimated
Sat 11:55:32 PM 48.3518 11.7212 268° West  Level Estimated

Login

Don't have an account? Register now (free) for customized features, flight alerts, and more!